sensor_id;sensor_type;location;lat;lon;timestamp;temperature;humidity
64858;SHT30;51335;51.148;6.950;2023-04-01T00:00:01;10.63;91.21
64858;SHT30;51335;51.148;6.950;2023-04-01T00:00:31;10.59;91.31
64858;SHT30;51335;51.148;6.950;2023-04-01T00:01:02;10.63;91.37
64858;SHT30;51335;51.148;6.950;2023-04-01T00:01:33;10.56;91.36
64858;SHT30;51335;51.148;6.950;2023-04-01T00:02:03;10.59;91.54
64858;SHT30;51335;51.148;6.950;2023-04-01T00:02:33;10.58;91.65
64858;SHT30;51335;51.148;6.950;2023-04-01T00:03:04;10.53;91.61
64858;SHT30;51335;51.148;6.950;2023-04-01T00:03:34;10.60;91.62
64858;SHT30;51335;51.148;6.950;2023-04-01T00:04:05;10.59;91.48
64858;SHT30;51335;51.148;6.950;2023-04-01T00:04:35;10.59;91.50
64858;SHT30;51335;51.148;6.950;2023-04-01T00:05:06;10.63;91.45
64858;SHT30;51335;51.148;6.950;2023-04-01T00:05:36;10.63;91.41
64858;SHT30;51335;51.148;6.950;2023-04-01T00:06:07;10.62;91.35
64858;SHT30;51335;51.148;6.950;2023-04-01T00:06:37;10.63;91.34
64858;SHT30;51335;51.148;6.950;2023-04-01T00:07:07;10.60;91.36
64858;SHT30;51335;51.148;6.950;2023-04-01T00:07:39;10.62;91.35
64858;SHT30;51335;51.148;6.950;2023-04-01T00:08:09;10.63;91.24
64858;SHT30;51335;51.148;6.950;2023-04-01T00:08:39;10.66;91.07
64858;SHT30;51335;51.148;6.950;2023-04-01T00:09:10;10.59;91.01
64858;SHT30;51335;51.148;6.950;2023-04-01T00:09:40;10.56;90.87
64858;SHT30;51335;51.148;6.950;2023-04-01T00:10:11;10.63;90.82
64858;SHT30;51335;51.148;6.950;2023-04-01T00:10:42;10.62;90.76
64858;SHT30;51335;51.148;6.950;2023-04-01T00:11:13;10.59;90.64
64858;SHT30;51335;51.148;6.950;2023-04-01T00:11:43;10.55;90.66
64858;SHT30;51335;51.148;6.950;2023-04-01T00:12:14;10.56;90.88
64858;SHT30;51335;51.148;6.950;2023-04-01T00:12:44;10.50;90.79
64858;SHT30;51335;51.148;6.950;2023-04-01T00:13:14;10.50;90.98
64858;SHT30;51335;51.148;6.950;2023-04-01T00:13:45;10.50;91.10
64858;SHT30;51335;51.148;6.950;2023-04-01T00:14:15;10.50;91.15
64858;SHT30;51335;51.148;6.950;2023-04-01T00:14:45;10.55;91.09
64858;SHT30;51335;51.148;6.950;2023-04-01T00:15:15;10.56;90.82
64858;SHT30;51335;51.148;6.950;2023-04-01T00:15:46;10.58;90.81
64858;SHT30;51335;51.148;6.950;2023-04-01T00:16:16;10.59;90.73
64858;SHT30;51335;51.148;6.950;2023-04-01T00:16:47;10.60;90.71
64858;SHT30;51335;51.148;6.950;2023-04-01T00:17:17;10.59;90.62
64858;SHT30;51335;51.148;6.950;2023-04-01T00:17:47;10.62;90.66
64858;SHT30;51335;51.148;6.950;2023-04-01T00:18:17;10.58;90.42
64858;SHT30;51335;51.148;6.950;2023-04-01T00:18:50;10.59;90.42
64858;SHT30;51335;51.148;6.950;2023-04-01T00:19:20;10.60;90.37
64858;SHT30;51335;51.148;6.950;2023-04-01T00:19:50;10.60;90.22
64858;SHT30;51335;51.148;6.950;2023-04-01T00:20:21;10.59;90.16
64858;SHT30;51335;51.148;6.950;2023-04-01T00:20:52;10.56;90.24
64858;SHT30;51335;51.148;6.950;2023-04-01T00:21:22;10.59;90.34
64858;SHT30;51335;51.148;6.950;2023-04-01T00:21:53;10.58;90.34
64858;SHT30;51335;51.148;6.950;2023-04-01T00:22:24;10.60;90.29
64858;SHT30;51335;51.148;6.950;2023-04-01T00:22:54;10.56;90.35
64858;SHT30;51335;51.148;6.950;2023-04-01T00:23:24;10.59;90.27
64858;SHT30;51335;51.148;6.950;2023-04-01T00:23:55;10.55;90.16
64858;SHT30;51335;51.148;6.950;2023-04-01T00:24:25;10.58;90.20
64858;SHT30;51335;51.148;6.950;2023-04-01T00:24:55;10.60;90.21
64858;SHT30;51335;51.148;6.950;2023-04-01T00:25:26;10.65;90.09
64858;SHT30;51335;51.148;6.950;2023-04-01T00:25:59;10.66;90.08
64858;SHT30;51335;51.148;6.950;2023-04-01T00:26:29;10.63;89.81
64858;SHT30;51335;51.148;6.950;2023-04-01T00:27:00;10.65;90.05
64858;SHT30;51335;51.148;6.950;2023-04-01T00:27:30;10.63;90.17
64858;SHT30;51335;51.148;6.950;2023-04-01T00:28:00;10.65;90.28
64858;SHT30;51335;51.148;6.950;2023-04-01T00:28:31;10.66;90.18
64858;SHT30;51335;51.148;6.950;2023-04-01T00:29:03;10.66;90.11
64858;SHT30;51335;51.148;6.950;2023-04-01T00:29:34;10.66;90.23
64858;SHT30;51335;51.148;6.950;2023-04-01T00:30:05;10.69;90.13
64858;SHT30;51335;51.148;6.950;2023-04-01T00:30:36;10.66;90.16
64858;SHT30;51335;51.148;6.950;2023-04-01T00:31:09;10.67;90.24
64858;SHT30;51335;51.148;6.950;2023-04-01T00:31:39;10.67;90.08
64858;SHT30;51335;51.148;6.950;2023-04-01T00:32:10;10.66;90.11
64858;SHT30;51335;51.148;6.950;2023-04-01T00:32:40;10.63;90.06
64858;SHT30;51335;51.148;6.950;2023-04-01T00:33:11;10.62;90.23
64858;SHT30;51335;51.148;6.950;2023-04-01T00:33:41;10.63;90.25
64858;SHT30;51335;51.148;6.950;2023-04-01T00:34:12;10.58;90.18
64858;SHT30;51335;51.148;6.950;2023-04-01T00:34:42;10.58;90.35
64858;SHT30;51335;51.148;6.950;2023-04-01T00:35:13;10.59;90.37
64858;SHT30;51335;51.148;6.950;2023-04-01T00:35:43;10.58;90.43
64858;SHT30;51335;51.148;6.950;2023-04-01T00:36:16;10.58;90.44
64858;SHT30;51335;51.148;6.950;2023-04-01T00:36:46;10.60;90.34
64858;SHT30;51335;51.148;6.950;2023-04-01T00:37:17;10.63;90.08
64858;SHT30;51335;51.148;6.950;2023-04-01T00:37:48;10.58;89.93
64858;SHT30;51335;51.148;6.950;2023-04-01T00:38:18;10.56;89.99
64858;SHT30;51335;51.148;6.950;2023-04-01T00:38:49;10.58;89.95
64858;SHT30;51335;51.148;6.950;2023-04-01T00:39:20;10.60;90.17
64858;SHT30;51335;51.148;6.950;2023-04-01T00:39:51;10.60;90.09
64858;SHT30;51335;51.148;6.950;2023-04-01T00:40:39;10.55;90.04
64858;SHT30;51335;51.148;6.950;2023-04-01T00:41:11;10.58;90.09
64858;SHT30;51335;51.148;6.950;2023-04-01T00:41:41;10.62;90.20
64858;SHT30;51335;51.148;6.950;2023-04-01T00:42:12;10.63;90.10
64858;SHT30;51335;51.148;6.950;2023-04-01T00:42:42;10.66;90.23
64858;SHT30;51335;51.148;6.950;2023-04-01T00:43:20;10.67;90.27
64858;SHT30;51335;51.148;6.950;2023-04-01T00:43:50;10.67;90.23
64858;SHT30;51335;51.148;6.950;2023-04-01T00:44:32;10.69;90.39
64858;SHT30;51335;51.148;6.950;2023-04-01T00:45:24;10.63;90.09
64858;SHT30;51335;51.148;6.950;2023-04-01T00:45:55;10.65;90.28
64858;SHT30;51335;51.148;6.950;2023-04-01T00:46:26;10.62;90.31
64858;SHT30;51335;51.148;6.950;2023-04-01T00:46:56;10.63;90.32
64858;SHT30;51335;51.148;6.950;2023-04-01T00:47:27;10.62;90.23
64858;SHT30;51335;51.148;6.950;2023-04-01T00:48:00;10.65;90.37
64858;SHT30;51335;51.148;6.950;2023-04-01T00:48:35;10.65;90.15
64858;SHT30;51335;51.148;6.950;2023-04-01T00:49:06;10.66;90.29
64858;SHT30;51335;51.148;6.950;2023-04-01T00:49:39;10.66;90.25
64858;SHT30;51335;51.148;6.950;2023-04-01T00:50:10;10.65;90.30
64858;SHT30;51335;51.148;6.950;2023-04-01T00:50:42;10.63;90.37
64858;SHT30;51335;51.148;6.950;2023-04-01T00:51:17;10.60;90.38
64858;SHT30;51335;51.148;6.950;2023-04-01T00:51:50;10.60;90.48
64858;SHT30;51335;51.148;6.950;2023-04-01T00:52:23;10.59;90.46
64858;SHT30;51335;51.148;6.950;2023-04-01T00:52:55;10.59;90.31
64858;SHT30;51335;51.148;6.950;2023-04-01T00:53:26;10.58;90.31
64858;SHT30;51335;51.148;6.950;2023-04-01T00:53:59;10.53;90.32
64858;SHT30;51335;51.148;6.950;2023-04-01T00:54:31;10.60;90.24
64858;SHT30;51335;51.148;6.950;2023-04-01T00:55:04;10.62;90.13
64858;SHT30;51335;51.148;6.950;2023-04-01T00:55:39;10.60;90.20
64858;SHT30;51335;51.148;6.950;2023-04-01T00:56:14;10.63;90.44
64858;SHT30;51335;51.148;6.950;2023-04-01T00:56:48;10.63;90.39
64858;SHT30;51335;51.148;6.950;2023-04-01T00:57:27;10.59;90.65
64858;SHT30;51335;51.148;6.950;2023-04-01T00:58:02;10.56;90.64
64858;SHT30;51335;51.148;6.950;2023-04-01T00:58:37;10.60;90.66
64858;SHT30;51335;51.148;6.950;2023-04-01T00:59:14;10.55;90.63
64858;SHT30;51335;51.148;6.950;2023-04-01T00:59:48;10.56;90.80
64858;SHT30;51335;51.148;6.950;2023-04-01T01:00:19;10.56;90.75
64858;SHT30;51335;51.148;6.950;2023-04-01T01:00:50;10.58;90.81
64858;SHT30;51335;51.148;6.950;2023-04-01T01:01:23;10.58;90.69
64858;SHT30;51335;51.148;6.950;2023-04-01T01:01:54;10.55;90.69
64858;SHT30;51335;51.148;6.950;2023-04-01T01:02:24;10.52;90.58
64858;SHT30;51335;51.148;6.950;2023-04-01T01:02:55;10.52;90.67
64858;SHT30;51335;51.148;6.950;2023-04-01T01:03:25;10.55;90.60
64858;SHT30;51335;51.148;6.950;2023-04-01T01:03:55;10.56;90.58
64858;SHT30;51335;51.148;6.950;2023-04-01T01:04:28;10.55;90.51
64858;SHT30;51335;51.148;6.950;2023-04-01T01:04:59;10.56;90.52
64858;SHT30;51335;51.148;6.950;2023-04-01T01:05:38;10.58;90.39
64858;SHT30;51335;51.148;6.950;2023-04-01T01:07:31;10.60;90.33
64858;SHT30;51335;51.148;6.950;2023-04-01T01:08:12;10.55;90.30
64858;SHT30;51335;51.148;6.950;2023-04-01T01:10:32;10.59;90.50
64858;SHT30;51335;51.148;6.950;2023-04-01T01:11:05;10.56;90.42
64858;SHT30;51335;51.148;6.950;2023-04-01T01:12:21;10.58;90.33
64858;SHT30;51335;51.148;6.950;2023-04-01T01:13:15;10.56;90.24
64858;SHT30;51335;51.148;6.950;2023-04-01T01:14:53;10.60;89.99
64858;SHT30;51335;51.148;6.950;2023-04-01T01:16:36;10.62;89.96
64858;SHT30;51335;51.148;6.950;2023-04-01T01:17:26;10.65;89.92
64858;SHT30;51335;51.148;6.950;2023-04-01T01:18:53;10.55;90.14
64858;SHT30;51335;51.148;6.950;2023-04-01T01:24:26;10.53;90.59
64858;SHT30;51335;51.148;6.950;2023-04-01T01:25:53;10.56;90.43
64858;SHT30;51335;51.148;6.950;2023-04-01T01:27:06;10.55;90.71
64858;SHT30;51335;51.148;6.950;2023-04-01T01:27:40;10.53;90.72
64858;SHT30;51335;51.148;6.950;2023-04-01T01:28:41;10.53;90.71
64858;SHT30;51335;51.148;6.950;2023-04-01T01:31:10;10.50;90.96
64858;SHT30;51335;51.148;6.950;2023-04-01T01:31:26;10.44;91.20
64858;SHT30;51335;51.148;6.950;2023-04-01T01:34:22;10.39;91.19
64858;SHT30;51335;51.148;6.950;2023-04-01T01:35:20;10.44;91.09
64858;SHT30;51335;51.148;6.950;2023-04-01T01:35:55;10.44;91.11
64858;SHT30;51335;51.148;6.950;2023-04-01T01:36:30;10.44;91.13
64858;SHT30;51335;51.148;6.950;2023-04-01T01:37:05;10.41;91.20
64858;SHT30;51335;51.148;6.950;2023-04-01T01:37:38;10.38;91.34
64858;SHT30;51335;51.148;6.950;2023-04-01T01:38:13;10.39;91.39
64858;SHT30;51335;51.148;6.950;2023-04-01T01:38:45;10.37;91.45
64858;SHT30;51335;51.148;6.950;2023-04-01T01:39:18;10.39;91.53
64858;SHT30;51335;51.148;6.950;2023-04-01T01:40:00;10.41;91.60
64858;SHT30;51335;51.148;6.950;2023-04-01T01:40:33;10.41;91.62
64858;SHT30;51335;51.148;6.950;2023-04-01T01:41:06;10.44;91.71
64858;SHT30;51335;51.148;6.950;2023-04-01T01:41:38;10.48;91.63
64858;SHT30;51335;51.148;6.950;2023-04-01T01:42:12;10.48;91.52
64858;SHT30;51335;51.148;6.950;2023-04-01T01:42:49;10.46;91.64
64858;SHT30;51335;51.148;6.950;2023-04-01T01:43:30;10.46;91.62
64858;SHT30;51335;51.148;6.950;2023-04-01T01:44:03;10.44;91.61
64858;SHT30;51335;51.148;6.950;2023-04-01T01:44:35;10.38;91.78
64858;SHT30;51335;51.148;6.950;2023-04-01T01:45:08;10.39;92.10
64858;SHT30;51335;51.148;6.950;2023-04-01T01:45:44;10.38;92.12
64858;SHT30;51335;51.148;6.950;2023-04-01T01:46:19;10.39;92.18
64858;SHT30;51335;51.148;6.950;2023-04-01T01:46:51;10.38;92.12
64858;SHT30;51335;51.148;6.950;2023-04-01T01:47:22;10.39;92.19
64858;SHT30;51335;51.148;6.950;2023-04-01T01:47:54;10.39;92.09
64858;SHT30;51335;51.148;6.950;2023-04-01T01:48:26;10.41;91.96
64858;SHT30;51335;51.148;6.950;2023-04-01T01:48:59;10.42;92.08
64858;SHT30;51335;51.148;6.950;2023-04-01T01:49:31;10.41;92.07
64858;SHT30;51335;51.148;6.950;2023-04-01T01:50:03;10.42;92.10
64858;SHT30;51335;51.148;6.950;2023-04-01T01:50:35;10.37;91.99
64858;SHT30;51335;51.148;6.950;2023-04-01T01:51:06;10.35;92.03
64858;SHT30;51335;51.148;6.950;2023-04-01T01:51:36;10.31;92.13
64858;SHT30;51335;51.148;6.950;2023-04-01T01:52:06;10.34;92.08
64858;SHT30;51335;51.148;6.950;2023-04-01T01:52:37;10.35;92.01
64858;SHT30;51335;51.148;6.950;2023-04-01T01:53:10;10.37;91.97
64858;SHT30;51335;51.148;6.950;2023-04-01T01:53:40;10.38;92.01
64858;SHT30;51335;51.148;6.950;2023-04-01T01:54:16;10.37;91.83
64858;SHT30;51335;51.148;6.950;2023-04-01T01:54:51;10.37;91.89
64858;SHT30;51335;51.148;6.950;2023-04-01T01:55:33;10.41;91.89
64858;SHT30;51335;51.148;6.950;2023-04-01T01:56:04;10.37;91.88
64858;SHT30;51335;51.148;6.950;2023-04-01T01:56:35;10.39;92.01
64858;SHT30;51335;51.148;6.950;2023-04-01T01:57:09;10.38;91.98
64858;SHT30;51335;51.148;6.950;2023-04-01T01:57:41;10.41;91.90
64858;SHT30;51335;51.148;6.950;2023-04-01T01:58:47;10.42;91.81
64858;SHT30;51335;51.148;6.950;2023-04-01T01:59:20;10.41;91.92
64858;SHT30;51335;51.148;6.950;2023-04-01T01:59:53;10.44;91.98
64858;SHT30;51335;51.148;6.950;2023-04-01T02:00:25;10.45;91.88
64858;SHT30;51335;51.148;6.950;2023-04-01T02:01:02;10.39;91.83
64858;SHT30;51335;51.148;6.950;2023-04-01T02:01:37;10.39;91.81
64858;SHT30;51335;51.148;6.950;2023-04-01T02:02:10;10.42;91.79
64858;SHT30;51335;51.148;6.950;2023-04-01T02:02:44;10.38;91.81
64858;SHT30;51335;51.148;6.950;2023-04-01T02:03:15;10.38;92.09
64858;SHT30;51335;51.148;6.950;2023-04-01T02:03:47;10.39;92.16
64858;SHT30;51335;51.148;6.950;2023-04-01T02:04:18;10.38;92.10
64858;SHT30;51335;51.148;6.950;2023-04-01T02:04:50;10.34;92.20
64858;SHT30;51335;51.148;6.950;2023-04-01T02:05:25;10.32;92.32
64858;SHT30;51335;51.148;6.950;2023-04-01T02:05:59;10.35;92.48
64858;SHT30;51335;51.148;6.950;2023-04-01T02:06:32;10.31;92.48
64858;SHT30;51335;51.148;6.950;2023-04-01T02:07:08;10.31;92.57
64858;SHT30;51335;51.148;6.950;2023-04-01T02:07:39;10.25;92.78
64858;SHT30;51335;51.148;6.950;2023-04-01T02:08:23;10.31;92.88
64858;SHT30;51335;51.148;6.950;2023-04-01T02:09:00;10.27;92.92
64858;SHT30;51335;51.148;6.950;2023-04-01T02:09:31;10.22;93.07
64858;SHT30;51335;51.148;6.950;2023-04-01T02:10:02;10.25;93.18
64858;SHT30;51335;51.148;6.950;2023-04-01T02:10:35;10.24;93.29
64858;SHT30;51335;51.148;6.950;2023-04-01T02:11:13;10.24;93.30
64858;SHT30;51335;51.148;6.950;2023-04-01T02:12:09;10.24;93.32
64858;SHT30;51335;51.148;6.950;2023-04-01T02:12:42;10.29;93.40
64858;SHT30;51335;51.148;6.950;2023-04-01T02:14:04;10.25;93.35
64858;SHT30;51335;51.148;6.950;2023-04-01T02:14:13;10.21;93.48
64858;SHT30;51335;51.148;6.950;2023-04-01T02:15:07;10.17;93.69
64858;SHT30;51335;51.148;6.950;2023-04-01T02:15:41;10.14;93.91
64858;SHT30;51335;51.148;6.950;2023-04-01T02:16:22;10.15;94.02
64858;SHT30;51335;51.148;6.950;2023-04-01T02:17:15;10.12;94.21
64858;SHT30;51335;51.148;6.950;2023-04-01T02:17:47;10.14;94.36
64858;SHT30;51335;51.148;6.950;2023-04-01T02:18:19;10.12;94.43
64858;SHT30;51335;51.148;6.950;2023-04-01T02:18:51;10.14;94.38
64858;SHT30;51335;51.148;6.950;2023-04-01T02:19:34;10.14;94.23
64858;SHT30;51335;51.148;6.950;2023-04-01T02:20:13;10.19;94.00
64858;SHT30;51335;51.148;6.950;2023-04-01T02:20:44;10.18;93.86
64858;SHT30;51335;51.148;6.950;2023-04-01T02:21:15;10.15;94.05
64858;SHT30;51335;51.148;6.950;2023-04-01T02:21:47;10.18;94.12
64858;SHT30;51335;51.148;6.950;2023-04-01T02:22:24;10.21;93.97
64858;SHT30;51335;51.148;6.950;2023-04-01T02:22:56;10.17;93.91
64858;SHT30;51335;51.148;6.950;2023-04-01T02:23:27;10.18;93.97
64858;SHT30;51335;51.148;6.950;2023-04-01T02:24:00;10.17;93.99
64858;SHT30;51335;51.148;6.950;2023-04-01T02:24:33;10.15;93.97
64858;SHT30;51335;51.148;6.950;2023-04-01T02:25:08;10.12;94.06
64858;SHT30;51335;51.148;6.950;2023-04-01T02:25:40;10.11;94.31
64858;SHT30;51335;51.148;6.950;2023-04-01T02:26:12;10.10;94.38
64858;SHT30;51335;51.148;6.950;2023-04-01T02:26:44;10.14;94.33
64858;SHT30;51335;51.148;6.950;2023-04-01T02:27:15;10.11;94.31
64858;SHT30;51335;51.148;6.950;2023-04-01T02:27:46;10.11;94.36
64858;SHT30;51335;51.148;6.950;2023-04-01T02:28:17;10.08;94.27
64858;SHT30;51335;51.148;6.950;2023-04-01T02:28:49;10.11;94.45
64858;SHT30;51335;51.148;6.950;2023-04-01T02:29:23;10.08;94.38
64858;SHT30;51335;51.148;6.950;2023-04-01T02:29:54;10.07;94.44
64858;SHT30;51335;51.148;6.950;2023-04-01T02:30:29;10.00;94.56
64858;SHT30;51335;51.148;6.950;2023-04-01T02:30:59;10.00;94.74
64858;SHT30;51335;51.148;6.950;2023-04-01T02:31:31;10.01;94.96
64858;SHT30;51335;51.148;6.950;2023-04-01T02:32:02;10.01;94.79
64858;SHT30;51335;51.148;6.950;2023-04-01T02:32:33;10.07;94.77
64858;SHT30;51335;51.148;6.950;2023-04-01T02:33:06;10.04;94.53
64858;SHT30;51335;51.148;6.950;2023-04-01T02:33:38;10.08;94.32
64858;SHT30;51335;51.148;6.950;2023-04-01T02:34:09;10.05;94.20
64858;SHT30;51335;51.148;6.950;2023-04-01T02:34:39;10.07;94.31
64858;SHT30;51335;51.148;6.950;2023-04-01T02:35:12;10.02;94.26
64858;SHT30;51335;51.148;6.950;2023-04-01T02:35:43;10.01;94.11
64858;SHT30;51335;51.148;6.950;2023-04-01T02:36:14;10.00;94.20
64858;SHT30;51335;51.148;6.950;2023-04-01T02:36:46;10.01;94.25
64858;SHT30;51335;51.148;6.950;2023-04-01T02:37:18;10.00;94.34
64858;SHT30;51335;51.148;6.950;2023-04-01T02:37:49;9.98;94.33
64858;SHT30;51335;51.148;6.950;2023-04-01T02:38:20;10.00;94.34
64858;SHT30;51335;51.148;6.950;2023-04-01T02:38:52;10.01;94.41
64858;SHT30;51335;51.148;6.950;2023-04-01T02:39:22;10.01;94.41
64858;SHT30;51335;51.148;6.950;2023-04-01T02:39:52;10.01;94.27
64858;SHT30;51335;51.148;6.950;2023-04-01T02:40:23;10.02;94.29
64858;SHT30;51335;51.148;6.950;2023-04-01T02:41:00;10.02;94.44
64858;SHT30;51335;51.148;6.950;2023-04-01T02:41:30;9.98;94.40
64858;SHT30;51335;51.148;6.950;2023-04-01T02:42:01;9.97;94.45
64858;SHT30;51335;51.148;6.950;2023-04-01T02:42:31;9.95;94.65
64858;SHT30;51335;51.148;6.950;2023-04-01T02:43:01;10.00;94.76
64858;SHT30;51335;51.148;6.950;2023-04-01T02:43:32;10.00;94.68
64858;SHT30;51335;51.148;6.950;2023-04-01T02:44:03;9.97;94.55
64858;SHT30;51335;51.148;6.950;2023-04-01T02:44:33;10.00;94.66
64858;SHT30;51335;51.148;6.950;2023-04-01T02:45:04;9.95;94.60
64858;SHT30;51335;51.148;6.950;2023-04-01T02:45:35;10.01;94.72
64858;SHT30;51335;51.148;6.950;2023-04-01T02:46:06;9.97;94.50
64858;SHT30;51335;51.148;6.950;2023-04-01T02:46:36;10.01;94.59
64858;SHT30;51335;51.148;6.950;2023-04-01T02:47:07;10.02;94.44
64858;SHT30;51335;51.148;6.950;2023-04-01T02:47:37;10.01;94.22
64858;SHT30;51335;51.148;6.950;2023-04-01T02:48:07;10.00;94.26
64858;SHT30;51335;51.148;6.950;2023-04-01T02:48:37;9.95;94.19
64858;SHT30;51335;51.148;6.950;2023-04-01T02:49:08;9.93;94.38
64858;SHT30;51335;51.148;6.950;2023-04-01T02:49:38;9.91;94.61
64858;SHT30;51335;51.148;6.950;2023-04-01T02:50:09;9.94;94.82
64858;SHT30;51335;51.148;6.950;2023-04-01T02:50:40;9.94;94.74
64858;SHT30;51335;51.148;6.950;2023-04-01T02:51:10;9.94;94.76
64858;SHT30;51335;51.148;6.950;2023-04-01T02:51:40;9.98;94.70
64858;SHT30;51335;51.148;6.950;2023-04-01T02:52:11;10.00;94.50
64858;SHT30;51335;51.148;6.950;2023-04-01T02:52:41;10.00;94.41
64858;SHT30;51335;51.148;6.950;2023-04-01T02:53:11;10.01;94.34
64858;SHT30;51335;51.148;6.950;2023-04-01T02:53:41;10.01;94.15
64858;SHT30;51335;51.148;6.950;2023-04-01T02:54:12;9.95;94.16
64858;SHT30;51335;51.148;6.950;2023-04-01T02:54:42;9.97;94.26
64858;SHT30;51335;51.148;6.950;2023-04-01T02:55:12;10.00;94.27
64858;SHT30;51335;51.148;6.950;2023-04-01T02:55:42;9.91;94.23
64858;SHT30;51335;51.148;6.950;2023-04-01T02:56:13;9.90;94.37
64858;SHT30;51335;51.148;6.950;2023-04-01T02:56:43;9.94;94.43
64858;SHT30;51335;51.148;6.950;2023-04-01T02:57:13;9.93;94.31
64858;SHT30;51335;51.148;6.950;2023-04-01T02:57:44;9.97;94.48
64858;SHT30;51335;51.148;6.950;2023-04-01T02:58:14;9.95;94.29
64858;SHT30;51335;51.148;6.950;2023-04-01T02:58:44;9.91;94.33
64858;SHT30;51335;51.148;6.950;2023-04-01T02:59:15;9.93;94.33
64858;SHT30;51335;51.148;6.950;2023-04-01T02:59:45;9.93;94.50
64858;SHT30;51335;51.148;6.950;2023-04-01T03:00:16;9.90;94.37
64858;SHT30;51335;51.148;6.950;2023-04-01T03:00:46;9.93;94.47
64858;SHT30;51335;51.148;6.950;2023-04-01T03:01:17;9.94;94.39
64858;SHT30;51335;51.148;6.950;2023-04-01T03:01:47;9.93;94.30
64858;SHT30;51335;51.148;6.950;2023-04-01T03:02:17;9.95;94.16
64858;SHT30;51335;51.148;6.950;2023-04-01T03:02:47;9.94;94.16
64858;SHT30;51335;51.148;6.950;2023-04-01T03:03:18;9.91;94.18
64858;SHT30;51335;51.148;6.950;2023-04-01T03:03:48;9.91;94.25
64858;SHT30;51335;51.148;6.950;2023-04-01T03:04:18;9.91;94.27
64858;SHT30;51335;51.148;6.950;2023-04-01T03:04:49;9.97;94.22
64858;SHT30;51335;51.148;6.950;2023-04-01T03:05:19;9.94;94.21
64858;SHT30;51335;51.148;6.950;2023-04-01T03:05:50;9.95;94.23
64858;SHT30;51335;51.148;6.950;2023-04-01T03:06:20;9.93;94.13
64858;SHT30;51335;51.148;6.950;2023-04-01T03:06:50;9.94;94.18
64858;SHT30;51335;51.148;6.950;2023-04-01T03:07:20;9.94;94.24
64858;SHT30;51335;51.148;6.950;2023-04-01T03:07:51;9.94;94.26
64858;SHT30;51335;51.148;6.950;2023-04-01T03:08:21;9.94;93.97
64858;SHT30;51335;51.148;6.950;2023-04-01T03:08:52;9.94;94.01
64858;SHT30;51335;51.148;6.950;2023-04-01T03:09:22;9.94;94.08
64858;SHT30;51335;51.148;6.950;2023-04-01T03:09:52;9.90;94.10
64858;SHT30;51335;51.148;6.950;2023-04-01T03:10:22;9.93;94.20
64858;SHT30;51335;51.148;6.950;2023-04-01T03:10:53;9.90;94.03
64858;SHT30;51335;51.148;6.950;2023-04-01T03:11:23;9.95;93.92
64858;SHT30;51335;51.148;6.950;2023-04-01T03:11:54;9.90;93.75
64858;SHT30;51335;51.148;6.950;2023-04-01T03:12:24;9.91;93.84
64858;SHT30;51335;51.148;6.950;2023-04-01T03:12:54;9.91;93.75
64858;SHT30;51335;51.148;6.950;2023-04-01T03:13:24;9.94;93.66
64858;SHT30;51335;51.148;6.950;2023-04-01T03:13:55;9.88;93.55
64858;SHT30;51335;51.148;6.950;2023-04-01T03:14:25;9.86;93.63
64858;SHT30;51335;51.148;6.950;2023-04-01T03:14:55;9.80;93.86
64858;SHT30;51335;51.148;6.950;2023-04-01T03:15:25;9.80;94.03
64858;SHT30;51335;51.148;6.950;2023-04-01T03:15:56;9.80;94.19
64858;SHT30;51335;51.148;6.950;2023-04-01T03:16:26;9.88;94.21
64858;SHT30;51335;51.148;6.950;2023-04-01T03:16:56;9.86;94.11
64858;SHT30;51335;51.148;6.950;2023-04-01T03:17:27;9.86;94.09
64858;SHT30;51335;51.148;6.950;2023-04-01T03:17:57;9.86;94.07
64858;SHT30;51335;51.148;6.950;2023-04-01T03:18:27;9.84;94.18
64858;SHT30;51335;51.148;6.950;2023-04-01T03:18:58;9.86;94.20
64858;SHT30;51335;51.148;6.950;2023-04-01T03:19:28;9.90;94.20
64858;SHT30;51335;51.148;6.950;2023-04-01T03:19:58;9.88;94.03
64858;SHT30;51335;51.148;6.950;2023-04-01T03:20:29;9.83;93.96
64858;SHT30;51335;51.148;6.950;2023-04-01T03:21:19;9.86;93.97
64858;SHT30;51335;51.148;6.950;2023-04-01T03:21:50;9.87;93.89
64858;SHT30;51335;51.148;6.950;2023-04-01T03:22:20;9.87;93.63
64858;SHT30;51335;51.148;6.950;2023-04-01T03:22:50;9.87;93.74
64858;SHT30;51335;51.148;6.950;2023-04-01T03:23:21;9.86;93.87
64858;SHT30;51335;51.148;6.950;2023-04-01T03:23:51;9.87;93.89
64858;SHT30;51335;51.148;6.950;2023-04-01T03:24:22;9.83;93.93
64858;SHT30;51335;51.148;6.950;2023-04-01T03:24:52;9.87;94.03
64858;SHT30;51335;51.148;6.950;2023-04-01T03:25:22;9.88;94.01
64858;SHT30;51335;51.148;6.950;2023-04-01T03:25:52;9.87;93.93
64858;SHT30;51335;51.148;6.950;2023-04-01T03:26:23;9.88;94.00
64858;SHT30;51335;51.148;6.950;2023-04-01T03:26:53;9.90;93.96
64858;SHT30;51335;51.148;6.950;2023-04-01T03:27:23;9.88;93.98
64858;SHT30;51335;51.148;6.950;2023-04-01T03:27:53;9.88;94.17
64858;SHT30;51335;51.148;6.950;2023-04-01T03:28:24;9.90;94.09
64858;SHT30;51335;51.148;6.950;2023-04-01T03:28:55;9.93;94.15
64858;SHT30;51335;51.148;6.950;2023-04-01T03:29:25;9.93;94.28
64858;SHT30;51335;51.148;6.950;2023-04-01T03:29:55;9.93;94.25
64858;SHT30;51335;51.148;6.950;2023-04-01T03:30:26;9.88;94.29
64858;SHT30;51335;51.148;6.950;2023-04-01T03:30:56;9.88;94.39
64858;SHT30;51335;51.148;6.950;2023-04-01T03:31:27;9.88;94.47
64858;SHT30;51335;51.148;6.950;2023-04-01T03:31:57;9.90;94.39
64858;SHT30;51335;51.148;6.950;2023-04-01T03:32:27;9.90;94.48
64858;SHT30;51335;51.148;6.950;2023-04-01T03:32:58;9.91;94.55
64858;SHT30;51335;51.148;6.950;2023-04-01T03:33:28;9.93;94.50
64858;SHT30;51335;51.148;6.950;2023-04-01T03:33:58;9.91;94.43
64858;SHT30;51335;51.148;6.950;2023-04-01T03:34:28;9.93;94.39
64858;SHT30;51335;51.148;6.950;2023-04-01T03:34:59;9.95;94.32
64858;SHT30;51335;51.148;6.950;2023-04-01T03:35:29;9.97;94.24
64858;SHT30;51335;51.148;6.950;2023-04-01T03:35:59;9.98;94.18
64858;SHT30;51335;51.148;6.950;2023-04-01T03:36:29;9.98;94.13
64858;SHT30;51335;51.148;6.950;2023-04-01T03:37:00;10.05;93.94
64858;SHT30;51335;51.148;6.950;2023-04-01T03:37:30;10.05;93.94
64858;SHT30;51335;51.148;6.950;2023-04-01T03:38:00;10.02;93.80
64858;SHT30;51335;51.148;6.950;2023-04-01T03:38:30;10.04;93.92
64858;SHT30;51335;51.148;6.950;2023-04-01T03:39:01;9.98;94.04
64858;SHT30;51335;51.148;6.950;2023-04-01T03:39:31;9.98;94.06
64858;SHT30;51335;51.148;6.950;2023-04-01T03:40:02;10.02;94.03
64858;SHT30;51335;51.148;6.950;2023-04-01T03:40:32;10.07;93.89
64858;SHT30;51335;51.148;6.950;2023-04-01T03:41:02;10.05;93.85
64858;SHT30;51335;51.148;6.950;2023-04-01T03:41:35;10.08;93.83
64858;SHT30;51335;51.148;6.950;2023-04-01T03:42:06;10.07;93.72
64858;SHT30;51335;51.148;6.950;2023-04-01T03:42:36;10.08;93.68
64858;SHT30;51335;51.148;6.950;2023-04-01T03:43:06;10.07;93.74